createdAt,value
2019-02-15T00:00:41.487Z,101476.00
2019-02-15T00:03:10.672Z,101481.00
2019-02-15T00:05:39.849Z,101478.00
2019-02-15T00:08:09.005Z,101478.00
2019-02-15T00:10:38.380Z,101479.00
2019-02-15T00:13:13.231Z,101483.00
2019-02-15T00:15:38.616Z,101476.00
2019-02-15T00:18:12.309Z,101480.00
2019-02-15T00:20:49.389Z,101482.00
2019-02-15T00:23:18.791Z,101476.00
2019-02-15T00:25:47.990Z,101474.00
2019-02-15T00:28:17.352Z,101472.00
2019-02-15T00:30:46.787Z,101474.00
2019-02-15T00:33:16.175Z,101474.00
2019-02-15T00:35:45.612Z,101476.00
2019-02-15T00:38:15.026Z,101468.00
2019-02-15T00:40:44.423Z,101470.00
2019-02-15T00:43:21.937Z,101465.00
2019-02-15T00:46:00.845Z,101468.00
2019-02-15T00:48:30.556Z,101463.00
2019-02-15T00:51:04.634Z,101471.00
2019-02-15T00:53:41.412Z,101471.00
2019-02-15T00:56:14.699Z,101469.00
2019-02-15T00:58:54.678Z,101465.00
2019-02-15T01:01:31.720Z,101473.00
2019-02-15T01:04:04.993Z,101469.00
2019-02-15T01:06:44.941Z,101476.00
2019-02-15T01:09:22.003Z,101468.00
2019-02-15T01:11:58.957Z,101469.00
2019-02-15T01:14:28.346Z,101464.00
2019-02-15T01:16:57.545Z,101461.00
2019-02-15T01:19:26.737Z,101473.00
2019-02-15T01:21:55.968Z,101468.00
2019-02-15T01:24:25.386Z,101476.00
2019-02-15T01:26:56.474Z,101470.00
2019-02-15T01:29:35.950Z,101477.00
2019-02-15T01:32:09.459Z,101478.00
2019-02-15T01:34:40.260Z,101468.00
2019-02-15T01:37:19.737Z,101464.00
2019-02-15T01:39:50.850Z,101468.00
2019-02-15T01:42:36.621Z,101480.00
2019-02-15T01:45:26.704Z,101466.00
2019-02-15T01:47:55.932Z,101463.00
2019-02-15T01:50:25.289Z,101461.00
2019-02-15T01:52:54.678Z,101460.00
2019-02-15T01:55:24.065Z,101459.00
2019-02-15T01:57:53.266Z,101460.00
2019-02-15T02:00:24.110Z,101460.00
2019-02-15T02:02:53.500Z,101455.00
2019-02-15T02:05:22.711Z,101453.00
2019-02-15T02:07:52.123Z,101463.00
2019-02-15T02:10:21.654Z,101455.00
2019-02-15T02:12:50.851Z,101450.00
2019-02-15T02:15:20.069Z,101456.00
2019-02-15T02:17:49.423Z,101458.00
2019-02-15T02:20:18.591Z,101450.00
2019-02-15T02:22:47.985Z,101448.00
2019-02-15T02:25:17.478Z,101448.00
2019-02-15T02:27:46.610Z,101450.00
2019-02-15T02:30:16.051Z,101442.00
2019-02-15T02:32:45.216Z,101449.00
2019-02-15T02:35:14.600Z,101436.00
2019-02-15T02:37:43.982Z,101440.00
2019-02-15T02:40:13.281Z,101444.00
2019-02-15T02:42:42.678Z,101433.00
2019-02-15T02:45:11.897Z,101436.00
2019-02-15T02:47:41.036Z,101437.00
2019-02-15T02:50:10.166Z,101431.00
2019-02-15T02:52:39.366Z,101433.00
2019-02-15T02:55:08.731Z,101436.00
2019-02-15T02:57:38.108Z,101437.00
2019-02-15T03:00:07.689Z,101429.00
2019-02-15T03:02:37.070Z,101429.00
2019-02-15T03:05:06.690Z,101431.00
2019-02-15T03:07:35.827Z,101432.00
2019-02-15T03:10:06.503Z,101433.00
2019-02-15T03:12:35.623Z,101429.00
2019-02-15T03:15:06.141Z,101431.00
2019-02-15T03:17:35.311Z,101442.00
2019-02-15T03:20:06.116Z,101431.00
2019-02-15T03:22:35.550Z,101434.00
2019-02-15T03:25:05.537Z,101434.00
2019-02-15T03:27:34.705Z,101433.00
2019-02-15T03:30:05.266Z,101429.00
2019-02-15T03:32:34.407Z,101430.00
2019-02-15T03:35:04.684Z,101426.00
2019-02-15T03:37:53.586Z,101440.00
2019-02-15T03:40:24.459Z,101439.00
2019-02-15T03:42:53.611Z,101439.00
2019-02-15T03:45:22.937Z,101437.00
2019-02-15T03:47:52.087Z,101431.00
2019-02-15T03:50:21.517Z,101432.00
2019-02-15T03:52:50.655Z,101433.00
2019-02-15T03:55:20.112Z,101429.00
2019-02-15T03:57:49.519Z,101432.00
2019-02-15T04:00:18.755Z,101423.00
2019-02-15T04:02:48.101Z,101432.00
2019-02-15T04:05:17.291Z,101441.00
2019-02-15T04:07:46.657Z,101448.00
2019-02-15T04:10:16.170Z,101451.00
2019-02-15T04:12:45.316Z,101443.00
2019-02-15T04:15:14.725Z,101439.00
2019-02-15T04:17:43.893Z,101442.00
2019-02-15T04:20:13.160Z,101436.00
2019-02-15T04:22:42.287Z,101435.00
2019-02-15T04:25:11.453Z,101439.00
2019-02-15T04:27:40.855Z,101437.00
2019-02-15T04:30:11.275Z,101428.00
2019-02-15T04:32:40.623Z,101437.00
2019-02-15T04:35:09.957Z,101435.00
2019-02-15T04:37:39.102Z,101421.00
2019-02-15T04:40:10.275Z,101423.00
2019-02-15T04:42:39.599Z,101427.00
2019-02-15T04:45:09.591Z,101414.00
2019-02-15T04:47:38.966Z,101422.00
2019-02-15T04:50:09.122Z,101434.00
2019-02-15T04:52:38.241Z,101427.00
2019-02-15T04:55:07.518Z,101429.00
2019-02-15T04:57:37.026Z,101424.00
2019-02-15T05:00:08.121Z,101421.00
2019-02-15T05:02:37.522Z,101416.00
2019-02-15T05:05:07.707Z,101416.00
2019-02-15T05:07:37.116Z,101408.00
2019-02-15T05:10:06.326Z,101414.00
2019-02-15T05:12:35.631Z,101403.00
2019-02-15T05:15:06.177Z,101409.00
2019-02-15T05:17:35.605Z,101414.00
2019-02-15T05:20:06.580Z,101411.00
2019-02-15T05:22:35.820Z,101410.00
2019-02-15T05:25:05.428Z,101411.00
2019-02-15T05:27:34.583Z,101411.00
2019-02-15T05:30:04.840Z,101412.00
2019-02-15T05:32:34.221Z,101406.00
2019-02-15T05:35:03.745Z,101407.00
2019-02-15T05:37:32.917Z,101412.00
2019-02-15T05:40:02.404Z,101406.00
2019-02-15T05:42:31.544Z,101396.00
2019-02-15T05:45:03.919Z,101405.00
2019-02-15T05:47:31.486Z,101410.00
2019-02-15T05:50:00.680Z,101407.00
2019-02-15T05:52:29.895Z,101408.00
2019-02-15T05:54:59.270Z,101408.00
2019-02-15T05:57:28.705Z,101407.00
2019-02-15T05:59:58.220Z,101407.00
2019-02-15T06:02:27.422Z,101408.00
2019-02-15T06:04:57.153Z,101409.00
2019-02-15T06:07:28.341Z,101400.00
2019-02-15T06:09:57.517Z,101406.00
2019-02-15T06:12:26.661Z,101406.00
2019-02-15T06:14:55.803Z,101402.00
2019-02-15T06:17:25.219Z,101404.00
2019-02-15T06:19:54.350Z,101412.00
2019-02-15T06:22:23.770Z,101398.00
2019-02-15T06:24:53.171Z,101410.00
2019-02-15T06:27:22.341Z,101416.00
2019-02-15T06:29:51.494Z,101410.00
2019-02-15T06:32:21.199Z,101410.00
2019-02-15T06:34:50.362Z,101418.00
2019-02-15T06:37:19.761Z,101407.00
2019-02-15T06:39:49.151Z,101403.00
2019-02-15T06:42:18.307Z,101410.00
2019-02-15T06:44:47.461Z,101410.00
2019-02-15T06:47:16.654Z,101418.00
2019-02-15T06:49:45.815Z,101419.00
2019-02-15T06:52:14.997Z,101422.00
2019-02-15T06:54:44.134Z,101420.00
2019-02-15T06:57:13.522Z,101421.00
2019-02-15T06:59:47.382Z,101425.00
2019-02-15T07:02:18.476Z,101441.00
2019-02-15T07:05:05.608Z,101441.00
2019-02-15T07:07:35.165Z,101433.00
2019-02-15T07:10:06.167Z,101444.00
2019-02-15T07:12:35.328Z,101439.00
2019-02-15T07:15:05.899Z,101442.00
2019-02-15T07:17:35.046Z,101451.00
2019-02-15T07:20:06.220Z,101458.00
2019-02-15T07:22:35.361Z,101453.00
2019-02-15T07:25:06.491Z,101458.00
2019-02-15T07:27:35.665Z,101440.00
2019-02-15T07:30:07.783Z,101453.00
2019-02-15T07:32:37.179Z,101453.00
2019-02-15T07:35:07.778Z,101452.00
2019-02-15T07:37:37.180Z,101459.00
2019-02-15T07:40:08.191Z,101454.00
2019-02-15T07:42:37.368Z,101454.00
2019-02-15T07:45:10.409Z,101459.00
2019-02-15T07:47:39.545Z,101455.00
2019-02-15T07:50:13.462Z,101459.00
2019-02-15T07:52:42.623Z,101468.00
2019-02-15T07:55:11.812Z,101466.00
2019-02-15T07:57:40.966Z,101463.00
2019-02-15T08:00:12.598Z,101457.00
2019-02-15T08:02:42.121Z,101469.00
2019-02-15T08:05:11.935Z,101468.00
2019-02-15T08:07:41.345Z,101467.00
2019-02-15T08:10:11.407Z,101463.00
2019-02-15T08:12:40.552Z,101473.00
2019-02-15T08:15:10.654Z,101472.00
2019-02-15T08:17:39.836Z,101475.00
2019-02-15T08:20:12.432Z,101477.00
2019-02-15T08:22:41.613Z,101471.00
2019-02-15T08:25:10.872Z,101474.00
2019-02-15T08:27:40.220Z,101466.00
2019-02-15T08:30:11.105Z,101470.00
2019-02-15T08:32:40.546Z,101478.00
2019-02-15T08:35:11.293Z,101475.00
2019-02-15T08:37:40.676Z,101476.00
2019-02-15T08:40:11.634Z,101474.00
2019-02-15T08:42:40.798Z,101481.00
2019-02-15T08:45:12.210Z,101473.00
2019-02-15T08:47:41.540Z,101472.00
2019-02-15T08:50:12.426Z,101472.00
2019-02-15T08:52:41.888Z,101467.00
2019-02-15T08:55:12.200Z,101473.00
2019-02-15T08:57:41.345Z,101472.00
2019-02-15T09:00:13.197Z,101470.00
2019-02-15T09:02:42.387Z,101473.00
2019-02-15T09:05:12.612Z,101474.00
2019-02-15T09:07:41.709Z,101471.00
2019-02-15T09:10:14.652Z,101479.00
2019-02-15T09:12:43.813Z,101475.00
2019-02-15T09:15:24.222Z,101480.00
2019-02-15T09:17:53.360Z,101475.00
2019-02-15T09:20:22.775Z,101483.00
2019-02-15T09:22:51.927Z,101485.00
2019-02-15T09:25:21.154Z,101483.00
2019-02-15T09:28:07.955Z,101485.00
2019-02-15T09:30:37.195Z,101487.00
2019-02-15T09:33:06.487Z,101484.00
2019-02-15T09:35:35.890Z,101486.00
2019-02-15T09:38:05.258Z,101489.00
2019-02-15T09:40:34.405Z,101484.00
2019-02-15T09:43:03.797Z,101493.00
2019-02-15T09:45:33.229Z,101488.00
2019-02-15T09:48:02.415Z,101492.00
2019-02-15T09:50:31.814Z,101489.00
2019-02-15T09:53:01.197Z,101494.00
2019-02-15T09:55:30.454Z,101486.00
2019-02-15T09:57:59.922Z,101490.00
2019-02-15T10:00:29.075Z,101479.00
2019-02-15T10:02:58.511Z,101483.00
2019-02-15T10:05:27.680Z,101483.00
2019-02-15T10:07:56.801Z,101481.00
2019-02-15T10:10:25.996Z,101488.00
2019-02-15T10:12:55.123Z,101477.00
2019-02-15T10:15:24.630Z,101485.00
2019-02-15T10:17:53.941Z,101478.00
2019-02-15T10:20:23.084Z,101477.00
2019-02-15T10:22:52.165Z,101476.00
2019-02-15T10:25:21.437Z,101475.00
2019-02-15T10:27:50.806Z,101486.00
2019-02-15T10:30:20.220Z,101485.00
2019-02-15T10:32:49.573Z,101475.00
2019-02-15T10:35:18.983Z,101477.00
2019-02-15T10:37:48.519Z,101477.00
2019-02-15T10:40:17.716Z,101478.00
2019-02-15T10:42:47.139Z,101467.00
2019-02-15T10:45:17.176Z,101465.00
2019-02-15T10:47:46.620Z,101470.00
2019-02-15T10:50:15.963Z,101462.00
2019-02-15T10:52:45.382Z,101464.00
2019-02-15T10:55:14.543Z,101468.00
2019-02-15T10:57:43.935Z,101463.00
2019-02-15T11:00:18.119Z,101460.00
2019-02-15T11:02:47.638Z,101465.00
2019-02-15T11:05:17.970Z,101468.00
2019-02-15T11:07:47.172Z,101462.00
2019-02-15T11:10:16.316Z,101470.00
2019-02-15T11:12:45.448Z,101467.00
2019-02-15T11:15:16.465Z,101461.00
2019-02-15T11:17:46.062Z,101460.00
2019-02-15T11:20:18.933Z,101466.00
2019-02-15T11:22:48.408Z,101450.00
2019-02-15T11:25:17.825Z,101459.00
2019-02-15T11:27:47.199Z,101457.00
2019-02-15T11:30:17.434Z,101462.00
2019-02-15T11:32:46.584Z,101450.00
2019-02-15T11:35:16.131Z,101452.00
2019-02-15T11:37:45.562Z,101453.00
2019-02-15T11:40:15.251Z,101448.00
2019-02-15T11:42:44.756Z,101441.00
2019-02-15T11:45:14.498Z,101452.00
2019-02-15T11:47:44.023Z,101445.00
2019-02-15T11:50:14.021Z,101444.00
2019-02-15T11:52:43.589Z,101443.00
2019-02-15T11:55:13.080Z,101441.00
2019-02-15T11:57:42.584Z,101443.00
2019-02-15T12:00:21.196Z,101440.00
2019-02-15T12:02:49.642Z,101441.00
2019-02-15T12:05:19.043Z,101437.00
2019-02-15T12:07:48.712Z,101436.00
2019-02-15T12:10:17.838Z,101431.00
2019-02-15T12:12:47.222Z,101431.00
2019-02-15T12:15:16.737Z,101434.00
2019-02-15T12:17:45.939Z,101428.00
2019-02-15T12:20:15.468Z,101434.00
2019-02-15T12:22:44.855Z,101420.00
2019-02-15T12:25:14.023Z,101423.00
2019-02-15T12:27:43.519Z,101420.00
2019-02-15T12:30:14.821Z,101416.00
2019-02-15T12:32:44.004Z,101411.00
2019-02-15T12:35:13.587Z,101413.00
2019-02-15T12:37:43.002Z,101419.00
2019-02-15T12:40:12.690Z,101412.00
2019-02-15T12:42:41.848Z,101405.00
2019-02-15T12:45:15.504Z,101406.00
2019-02-15T12:47:44.897Z,101404.00
2019-02-15T12:50:18.242Z,101404.00
2019-02-15T12:52:47.629Z,101409.00
2019-02-15T12:55:16.799Z,101402.00
2019-02-15T12:57:46.210Z,101400.00
2019-02-15T13:00:18.803Z,101388.00
2019-02-15T13:02:48.237Z,101390.00
2019-02-15T13:05:17.618Z,101390.00
2019-02-15T13:07:46.977Z,101391.00
2019-02-15T13:10:29.740Z,101384.00
2019-02-15T13:12:58.914Z,101393.00
2019-02-15T13:15:28.357Z,101376.00
2019-02-15T13:17:57.823Z,101388.00
2019-02-15T13:20:26.945Z,101389.00
2019-02-15T13:22:56.119Z,101380.00
2019-02-15T13:25:25.319Z,101380.00
2019-02-15T13:27:54.744Z,101371.00
2019-02-15T13:30:24.173Z,101367.00
2019-02-15T13:32:53.393Z,101367.00
2019-02-15T13:35:26.018Z,101367.00
2019-02-15T13:37:55.447Z,101351.00
2019-02-15T13:40:24.912Z,101360.00
2019-02-15T13:42:54.315Z,101361.00
2019-02-15T13:45:23.563Z,101359.00
2019-02-15T13:47:52.971Z,101342.00
2019-02-15T13:50:22.146Z,101351.00
2019-02-15T13:52:51.501Z,101343.00
2019-02-15T13:55:20.878Z,101341.00
2019-02-15T13:57:50.010Z,101342.00
2019-02-15T14:00:19.389Z,101344.00
2019-02-15T14:02:48.799Z,101344.00
2019-02-15T14:05:17.960Z,101338.00
2019-02-15T14:07:47.354Z,101334.00
2019-02-15T14:10:16.758Z,101340.00
2019-02-15T14:12:45.922Z,101331.00
2019-02-15T14:15:15.407Z,101331.00
2019-02-15T14:17:48.252Z,101329.00
2019-02-15T14:20:16.004Z,101328.00
2019-02-15T14:22:45.403Z,101323.00
2019-02-15T14:25:14.665Z,101313.00
2019-02-15T14:27:44.057Z,101308.00
2019-02-15T14:30:14.702Z,101319.00
2019-02-15T14:32:44.138Z,101313.00
2019-02-15T14:35:14.810Z,101314.00
2019-02-15T14:37:44.187Z,101313.00
2019-02-15T14:40:14.653Z,101313.00
2019-02-15T14:42:43.889Z,101308.00
2019-02-15T14:45:14.120Z,101303.00
2019-02-15T14:47:43.340Z,101302.00
2019-02-15T14:50:12.496Z,101305.00
2019-02-15T14:52:41.853Z,101299.00
2019-02-15T14:55:11.706Z,101306.00
2019-02-15T14:57:41.094Z,101292.00
2019-02-15T15:00:14.693Z,101296.00
2019-02-15T15:02:44.080Z,101294.00
2019-02-15T15:05:15.946Z,101294.00
2019-02-15T15:07:45.316Z,101285.00
2019-02-15T15:10:14.495Z,101274.00
2019-02-15T15:12:44.077Z,101277.00
2019-02-15T15:15:15.284Z,101271.00
2019-02-15T15:17:44.674Z,101266.00
2019-02-15T15:20:14.146Z,101271.00
2019-02-15T15:22:43.552Z,101264.00
2019-02-15T15:25:16.287Z,101263.00
2019-02-15T15:27:45.691Z,101258.00
2019-02-15T15:30:16.988Z,101266.00
2019-02-15T15:32:46.120Z,101260.00
2019-02-15T15:35:15.548Z,101253.00
2019-02-15T15:37:44.986Z,101255.00
2019-02-15T15:40:15.168Z,101254.00
2019-02-15T15:42:44.274Z,101246.00
2019-02-15T15:45:13.913Z,101250.00
2019-02-15T15:47:43.081Z,101243.00
2019-02-15T15:50:12.593Z,101240.00
2019-02-15T15:52:42.071Z,101241.00
2019-02-15T15:55:13.746Z,101241.00
2019-02-15T15:57:43.121Z,101247.00
2019-02-15T16:00:14.936Z,101239.00
2019-02-15T16:02:44.390Z,101234.00
2019-02-15T16:05:13.957Z,101237.00
2019-02-15T16:07:43.884Z,101232.00
2019-02-15T16:10:14.998Z,101238.00
2019-02-15T16:12:44.414Z,101234.00
2019-02-15T16:15:14.134Z,101230.00
2019-02-15T16:17:43.271Z,101222.00
2019-02-15T16:20:13.288Z,101230.00
2019-02-15T16:22:42.495Z,101233.00
2019-02-15T16:25:12.152Z,101233.00
2019-02-15T16:27:43.417Z,101233.00
2019-02-15T16:30:15.092Z,101238.00
2019-02-15T16:32:44.442Z,101239.00
2019-02-15T16:35:13.555Z,101231.00
2019-02-15T16:37:42.889Z,101232.00
2019-02-15T16:40:16.027Z,101233.00
2019-02-15T16:42:45.348Z,101235.00
2019-02-15T16:45:15.331Z,101242.00
2019-02-15T16:47:44.410Z,101232.00
2019-02-15T16:50:14.201Z,101233.00
2019-02-15T16:52:43.287Z,101230.00
2019-02-15T16:55:13.544Z,101226.00
2019-02-15T16:57:42.689Z,101225.00
2019-02-15T17:00:13.042Z,101235.00
2019-02-15T17:02:42.109Z,101224.00
2019-02-15T17:05:11.691Z,101226.00
2019-02-15T17:07:41.096Z,101225.00
2019-02-15T17:10:10.980Z,101223.00
2019-02-15T17:12:40.198Z,101218.00
2019-02-15T17:15:13.229Z,101222.00
2019-02-15T17:17:42.413Z,101221.00
2019-02-15T17:20:11.819Z,101213.00
2019-02-15T17:22:41.176Z,101218.00
2019-02-15T17:25:11.492Z,101207.00
2019-02-15T17:27:40.610Z,101218.00
2019-02-15T17:30:11.976Z,101213.00
2019-02-15T17:32:41.311Z,101207.00
2019-02-15T17:35:11.841Z,101216.00
2019-02-15T17:37:40.908Z,101207.00
2019-02-15T17:40:13.286Z,101203.00
2019-02-15T17:42:42.606Z,101206.00
2019-02-15T17:45:12.441Z,101200.00
2019-02-15T17:47:41.802Z,101194.00
2019-02-15T17:50:12.327Z,101195.00
2019-02-15T17:52:41.927Z,101197.00
2019-02-15T17:55:12.286Z,101195.00
2019-02-15T17:57:41.365Z,101189.00
2019-02-15T18:00:16.044Z,101188.00
2019-02-15T18:02:45.378Z,101188.00
2019-02-15T18:05:17.483Z,101190.00
2019-02-15T18:07:51.794Z,101180.00
2019-02-15T18:10:21.149Z,101189.00
2019-02-15T18:12:50.479Z,101184.00
2019-02-15T18:15:19.548Z,101173.00
2019-02-15T18:17:48.914Z,101177.00
2019-02-15T18:20:19.620Z,101175.00
2019-02-15T18:22:48.970Z,101184.00
2019-02-15T18:25:18.523Z,101178.00
2019-02-15T18:27:47.679Z,101179.00
2019-02-15T18:30:17.633Z,101178.00
2019-02-15T18:32:46.945Z,101167.00
2019-02-15T18:35:17.034Z,101168.00
2019-02-15T18:37:46.165Z,101168.00
2019-02-15T18:40:15.498Z,101166.00
2019-02-15T18:42:44.899Z,101167.00
2019-02-15T18:45:16.159Z,101168.00
2019-02-15T18:47:45.258Z,101168.00
2019-02-15T18:50:14.420Z,101167.00
2019-02-15T18:52:43.755Z,101168.00
2019-02-15T18:55:13.027Z,101162.00
2019-02-15T18:57:42.404Z,101164.00
2019-02-15T19:00:16.775Z,101165.00
2019-02-15T19:02:49.037Z,101162.00
2019-02-15T19:05:18.142Z,101164.00
2019-02-15T19:07:47.490Z,101161.00
2019-02-15T19:10:18.969Z,101163.00
2019-02-15T19:12:48.074Z,101158.00
2019-02-15T19:15:17.325Z,101160.00
2019-02-15T19:17:46.710Z,101148.00
2019-02-15T19:20:17.248Z,101148.00
2019-02-15T19:22:46.663Z,101151.00
2019-02-15T19:25:18.723Z,101146.00
2019-02-15T19:27:48.072Z,101145.00
2019-02-15T19:30:26.210Z,101146.00
2019-02-15T19:32:55.601Z,101150.00
2019-02-15T19:35:24.709Z,101136.00
2019-02-15T19:37:54.415Z,101136.00
2019-02-15T19:40:23.526Z,101142.00
2019-02-15T19:43:00.834Z,101134.00
2019-02-15T19:45:30.199Z,101134.00
2019-02-15T19:47:59.578Z,101132.00
2019-02-15T19:50:28.940Z,101126.00
2019-02-15T19:52:58.061Z,101131.00
2019-02-15T19:55:27.411Z,101121.00
2019-02-15T19:57:56.518Z,101130.00
2019-02-15T20:00:25.607Z,101134.00
2019-02-15T20:02:54.972Z,101122.00
2019-02-15T20:05:24.181Z,101125.00
2019-02-15T20:07:53.550Z,101118.00
2019-02-15T20:10:23.382Z,101116.00
2019-02-15T20:12:52.504Z,101116.00
2019-02-15T20:15:21.571Z,101114.00
2019-02-15T20:17:50.915Z,101111.00
2019-02-15T20:20:19.992Z,101109.00
2019-02-15T20:22:49.360Z,101116.00
2019-02-15T20:25:18.445Z,101103.00
2019-02-15T20:27:47.793Z,101104.00
2019-02-15T20:30:21.516Z,101106.00
2019-02-15T20:32:50.586Z,101107.00
2019-02-15T20:35:19.849Z,101106.00
2019-02-15T20:37:49.026Z,101111.00
2019-02-15T20:40:18.501Z,101103.00
2019-02-15T20:42:47.673Z,101102.00
2019-02-15T20:45:22.522Z,101104.00
2019-02-15T20:47:51.635Z,101089.00
2019-02-15T20:50:21.170Z,101096.00
2019-02-15T20:52:50.542Z,101088.00
2019-02-15T20:55:20.839Z,101085.00
2019-02-15T20:57:50.023Z,101086.00
2019-02-15T21:00:24.465Z,101085.00
2019-02-15T21:02:53.808Z,101074.00
2019-02-15T21:05:22.945Z,101072.00
2019-02-15T21:07:52.347Z,101076.00
2019-02-15T21:10:21.481Z,101071.00
2019-02-15T21:12:50.877Z,101074.00
2019-02-15T21:15:20.351Z,101061.00
2019-02-15T21:17:49.433Z,101062.00
2019-02-15T21:20:18.585Z,101062.00
2019-02-15T21:22:47.661Z,101060.00
2019-02-15T21:25:17.437Z,101064.00
2019-02-15T21:27:46.560Z,101059.00
2019-02-15T21:30:17.927Z,101059.00
2019-02-15T21:32:47.302Z,101056.00
2019-02-15T21:35:16.404Z,101054.00
2019-02-15T21:37:45.788Z,101053.00
2019-02-15T21:40:18.329Z,101048.00
2019-02-15T21:42:47.413Z,101053.00
2019-02-15T21:45:16.807Z,101050.00
2019-02-15T21:47:45.921Z,101053.00
2019-02-15T21:50:17.536Z,101040.00
2019-02-15T21:52:46.403Z,101045.00
2019-02-15T21:55:16.815Z,101032.00
2019-02-15T21:57:46.154Z,101031.00
2019-02-15T22:00:22.335Z,101027.00
2019-02-15T22:02:51.684Z,101031.00
2019-02-15T22:05:20.818Z,101036.00
2019-02-15T22:07:49.901Z,101026.00
2019-02-15T22:10:19.017Z,101024.00
2019-02-15T22:12:48.365Z,101021.00
2019-02-15T22:15:17.969Z,101018.00
2019-02-15T22:17:47.078Z,101017.00
2019-02-15T22:20:26.406Z,101015.00
2019-02-15T22:22:49.613Z,101005.00
2019-02-15T22:25:18.733Z,101010.00
2019-02-15T22:27:47.855Z,101004.00
2019-02-15T22:30:18.325Z,101005.00
2019-02-15T22:32:47.414Z,101011.00
2019-02-15T22:35:16.781Z,101008.00
2019-02-15T22:37:46.117Z,101002.00
2019-02-15T22:40:30.105Z,100998.00
2019-02-15T22:43:02.365Z,101007.00
2019-02-15T22:45:31.525Z,101001.00
2019-02-15T22:48:00.872Z,100999.00
2019-02-15T22:50:36.037Z,101003.00
2019-02-15T22:53:00.750Z,101005.00
2019-02-15T22:55:30.155Z,100996.00
2019-02-15T22:57:59.241Z,100999.00
2019-02-15T23:00:49.545Z,101008.00
2019-02-15T23:03:22.118Z,101001.00
2019-02-15T23:05:51.234Z,100991.00
2019-02-15T23:08:20.350Z,100989.00
2019-02-15T23:10:49.692Z,100991.00
2019-02-15T23:13:19.034Z,100990.00
2019-02-15T23:15:48.157Z,100989.00
2019-02-15T23:18:19.067Z,100998.00
2019-02-15T23:20:48.260Z,100996.00
2019-02-15T23:23:17.632Z,100994.00
2019-02-15T23:25:46.716Z,100992.00
2019-02-15T23:28:16.075Z,100982.00
2019-02-15T23:30:45.409Z,100987.00
2019-02-15T23:33:14.564Z,100989.00
2019-02-15T23:35:43.874Z,100989.00
2019-02-15T23:38:12.968Z,100982.00
2019-02-15T23:40:42.346Z,100987.00
2019-02-15T23:43:11.449Z,100988.00
2019-02-15T23:45:40.529Z,100981.00
2019-02-15T23:48:09.685Z,100979.00
2019-02-15T23:50:38.801Z,100974.00
2019-02-15T23:53:07.905Z,100981.00
2019-02-15T23:55:37.023Z,100980.00
2019-02-15T23:58:06.401Z,100973.00
